createdAt,value
2023-07-23T00:02:28.309Z,18.35
2023-07-23T00:04:56.644Z,18.08
2023-07-23T00:07:25.162Z,18.05
2023-07-23T00:09:53.520Z,18.02
2023-07-23T00:12:22.076Z,18.05
2023-07-23T00:14:50.385Z,18.05
2023-07-23T00:17:18.926Z,18.10
2023-07-23T00:19:48.598Z,18.20
2023-07-23T00:22:17.346Z,17.92
2023-07-23T00:24:46.789Z,17.88
2023-07-23T00:27:15.912Z,17.94
2023-07-23T00:29:44.602Z,17.91
2023-07-23T00:32:13.190Z,17.88
2023-07-23T00:34:41.499Z,17.80
2023-07-23T00:37:11.815Z,18.08
2023-07-23T00:39:40.755Z,17.92
2023-07-23T00:42:09.341Z,17.79
2023-07-23T00:44:37.625Z,17.74
2023-07-23T00:47:06.325Z,17.65
2023-07-23T00:49:34.912Z,17.58
2023-07-23T00:52:03.566Z,17.46
2023-07-23T00:54:33.677Z,17.71
2023-07-23T00:57:03.683Z,17.64
2023-07-23T00:59:33.614Z,17.36
2023-07-23T01:02:03.279Z,17.33
2023-07-23T01:04:32.367Z,17.53
2023-07-23T01:07:03.468Z,17.63
2023-07-23T01:09:33.422Z,17.41
2023-07-23T01:12:02.115Z,17.26
2023-07-23T01:14:30.463Z,17.19
2023-07-23T01:17:00.094Z,17.36
2023-07-23T01:19:28.631Z,17.12
2023-07-23T01:22:01.328Z,17.48
2023-07-23T01:24:29.945Z,17.14
2023-07-23T01:26:58.467Z,17.14
2023-07-23T01:29:26.815Z,17.15
2023-07-23T01:31:55.263Z,17.12
2023-07-23T01:34:23.872Z,17.15
2023-07-23T01:36:52.593Z,17.19
2023-07-23T01:39:22.222Z,17.35
2023-07-23T01:41:50.801Z,17.20
2023-07-23T01:44:19.387Z,17.27
2023-07-23T01:46:48.542Z,17.21
2023-07-23T01:49:16.708Z,17.20
2023-07-23T01:51:45.395Z,17.29
2023-07-23T01:54:13.649Z,17.32
2023-07-23T01:56:43.589Z,17.67
2023-07-23T01:59:11.809Z,17.39
2023-07-23T02:01:40.326Z,17.36
2023-07-23T02:04:08.905Z,17.41
2023-07-23T02:06:37.828Z,17.41
2023-07-23T02:09:06.034Z,17.28
2023-07-23T02:11:34.514Z,17.23
2023-07-23T02:14:04.120Z,17.43
2023-07-23T02:16:32.708Z,17.15
2023-07-23T02:19:01.822Z,17.15
2023-07-23T02:21:30.771Z,17.18
2023-07-23T02:23:59.784Z,17.18
2023-07-23T02:26:28.306Z,17.08
2023-07-23T02:28:56.721Z,16.93
2023-07-23T02:31:27.024Z,17.10
2023-07-23T02:33:55.594Z,16.79
2023-07-23T02:36:24.136Z,16.78
2023-07-23T02:38:52.433Z,16.47
2023-07-23T02:41:21.128Z,16.48
2023-07-23T02:43:49.363Z,16.46
2023-07-23T02:46:17.898Z,16.51
2023-07-23T02:48:47.673Z,16.76
2023-07-23T02:51:16.197Z,16.58
2023-07-23T02:53:44.543Z,16.65
2023-07-23T02:56:13.011Z,16.60
2023-07-23T02:58:41.479Z,16.50
2023-07-23T03:01:10.542Z,16.48
2023-07-23T03:03:38.858Z,16.54
2023-07-23T03:06:09.959Z,16.77
2023-07-23T03:08:38.386Z,16.57
2023-07-23T03:11:07.335Z,16.66
2023-07-23T03:13:35.667Z,16.57
2023-07-23T03:16:05.496Z,16.53
2023-07-23T03:18:33.729Z,16.50
2023-07-23T03:21:02.481Z,16.38
2023-07-23T03:23:32.067Z,16.57
2023-07-23T03:26:00.672Z,16.23
2023-07-23T03:28:28.868Z,16.33
2023-07-23T03:30:57.487Z,16.34
2023-07-23T03:33:25.693Z,16.48
2023-07-23T03:35:54.273Z,16.57
2023-07-23T03:38:22.572Z,16.63
2023-07-23T03:40:52.396Z,16.92
2023-07-23T03:43:20.914Z,16.74
2023-07-23T03:45:49.619Z,16.89
2023-07-23T03:48:17.916Z,17.03
2023-07-23T03:50:46.487Z,17.09
2023-07-23T03:53:14.920Z,17.27
2023-07-23T03:55:43.319Z,17.41
2023-07-23T03:58:13.676Z,17.87
2023-07-23T04:00:43.100Z,17.75
2023-07-23T04:03:14.171Z,17.74
2023-07-23T04:05:43.064Z,17.85
2023-07-23T04:08:11.411Z,17.98
2023-07-23T04:10:39.987Z,18.13
2023-07-23T04:13:08.452Z,18.44
2023-07-23T04:15:39.680Z,18.80
2023-07-23T04:18:16.739Z,19.18
2023-07-23T04:20:45.584Z,19.12
2023-07-23T04:23:13.856Z,19.16
2023-07-23T04:25:42.521Z,19.14
2023-07-23T04:28:10.778Z,19.06
2023-07-23T04:30:40.800Z,19.22
2023-07-23T04:33:09.103Z,18.87
2023-07-23T04:35:37.757Z,18.82
2023-07-23T04:38:05.961Z,18.89
2023-07-23T04:40:36.547Z,19.21
2023-07-23T04:43:04.766Z,19.44
2023-07-23T04:45:33.340Z,19.46
2023-07-23T04:48:03.038Z,19.68
2023-07-23T04:50:31.513Z,19.33
2023-07-23T04:52:59.883Z,19.44
2023-07-23T04:55:28.375Z,19.48
2023-07-23T04:57:56.809Z,19.58
2023-07-23T05:00:25.650Z,19.51
2023-07-23T05:02:54.138Z,19.51
2023-07-23T05:05:24.278Z,19.69
2023-07-23T05:07:52.485Z,19.38
2023-07-23T05:10:21.050Z,19.48
2023-07-23T05:12:49.274Z,19.43
2023-07-23T05:15:19.224Z,19.42
2023-07-23T05:17:47.585Z,19.09
2023-07-23T05:20:17.291Z,19.13
2023-07-23T05:22:46.967Z,19.46
2023-07-23T05:25:15.643Z,19.28
2023-07-23T05:27:43.918Z,19.33
2023-07-23T05:30:13.319Z,19.46
2023-07-23T05:32:41.633Z,19.49
2023-07-23T05:35:10.438Z,19.59
2023-07-23T05:37:38.898Z,19.77
2023-07-23T05:40:10.249Z,20.22
2023-07-23T05:42:38.558Z,20.15
2023-07-23T05:45:08.163Z,20.56
2023-07-23T05:47:36.599Z,20.86
2023-07-23T05:50:06.040Z,21.28
2023-07-23T05:52:34.440Z,21.11
2023-07-23T05:55:02.975Z,20.93
2023-07-23T05:57:32.735Z,20.89
2023-07-23T06:00:01.280Z,20.53
2023-07-23T06:02:29.874Z,20.36
2023-07-23T06:04:58.944Z,20.26
2023-07-23T06:07:27.227Z,20.07
2023-07-23T06:09:56.263Z,20.16
2023-07-23T06:12:24.820Z,20.11
2023-07-23T06:14:55.151Z,20.37
2023-07-23T06:17:23.558Z,20.19
2023-07-23T06:19:52.101Z,20.06
2023-07-23T06:22:20.396Z,20.03
2023-07-23T06:24:49.040Z,20.13
2023-07-23T06:27:17.468Z,20.21
2023-07-23T06:29:46.462Z,20.42
2023-07-23T06:32:16.788Z,20.53
2023-07-23T06:34:45.387Z,20.70
2023-07-23T06:37:13.645Z,21.05
2023-07-23T06:39:42.372Z,21.65
2023-07-23T06:42:10.578Z,21.90
2023-07-23T06:44:40.716Z,22.20
2023-07-23T06:47:10.188Z,21.91
2023-07-23T06:49:40.272Z,22.09
2023-07-23T06:52:09.028Z,22.04
2023-07-23T06:54:42.229Z,22.27
2023-07-23T06:57:10.796Z,22.51
2023-07-23T06:59:39.361Z,23.18
2023-07-23T07:02:08.766Z,24.26
2023-07-23T07:04:37.328Z,24.61
2023-07-23T07:07:08.058Z,25.01
2023-07-23T07:09:36.478Z,24.82
2023-07-23T07:12:05.355Z,24.78
2023-07-23T07:14:34.035Z,24.56
2023-07-23T07:17:04.058Z,24.37
2023-07-23T07:19:35.053Z,24.60
2023-07-23T07:22:03.395Z,24.61
2023-07-23T07:24:33.538Z,24.97
2023-07-23T07:27:01.780Z,24.82
2023-07-23T07:29:30.594Z,25.31
2023-07-23T07:31:58.916Z,26.04
2023-07-23T07:34:27.483Z,26.52
2023-07-23T07:36:55.926Z,26.66
2023-07-23T07:39:24.519Z,26.68
2023-07-23T07:41:55.644Z,27.00
2023-07-23T07:44:24.278Z,26.84
2023-07-23T07:46:52.605Z,26.78
2023-07-23T07:49:21.202Z,26.75
2023-07-23T07:51:50.059Z,26.92
2023-07-23T07:54:18.855Z,27.67
2023-07-23T07:56:47.814Z,29.19
2023-07-23T07:59:18.455Z,31.10
2023-07-23T08:01:47.556Z,32.28
2023-07-23T08:04:16.791Z,33.58
2023-07-23T08:06:45.896Z,34.83
2023-07-23T08:09:14.844Z,35.97
2023-07-23T08:11:43.788Z,37.43
2023-07-23T08:14:15.207Z,39.20
2023-07-23T08:16:45.585Z,40.11
2023-07-23T08:19:14.943Z,40.19
2023-07-23T08:21:43.734Z,40.10
2023-07-23T08:24:13.324Z,40.31
2023-07-23T08:26:42.300Z,40.67
2023-07-23T08:29:11.567Z,41.09
2023-07-23T08:31:40.687Z,41.60
2023-07-23T08:34:11.181Z,42.55
2023-07-23T08:36:39.392Z,43.70
2023-07-23T08:39:08.814Z,43.28
2023-07-23T08:41:39.490Z,43.83
2023-07-23T08:44:50.719Z,44.37
2023-07-23T08:47:23.415Z,44.29
2023-07-23T08:49:54.584Z,44.76
2023-07-23T08:52:22.927Z,45.18
2023-07-23T08:54:51.686Z,45.92
2023-07-23T08:57:19.899Z,46.23
2023-07-23T08:59:48.494Z,46.44
2023-07-23T09:02:17.009Z,45.95
2023-07-23T09:04:45.660Z,45.88
2023-07-23T09:07:17.726Z,46.80
2023-07-23T09:09:49.544Z,46.76
2023-07-23T09:12:17.956Z,46.59
2023-07-23T09:14:47.021Z,46.99
2023-07-23T09:17:19.453Z,47.81
2023-07-23T09:19:49.229Z,48.07
2023-07-23T09:22:20.097Z,48.61
2023-07-23T09:24:47.768Z,47.55
2023-07-23T09:27:17.411Z,47.16
2023-07-23T09:29:47.845Z,47.55
2023-07-23T09:32:27.300Z,48.75
2023-07-23T09:34:57.199Z,49.14
2023-07-23T09:37:28.814Z,50.04
2023-07-23T09:39:58.172Z,50.61
2023-07-23T09:42:27.087Z,51.55
2023-07-23T09:45:02.093Z,52.11
2023-07-23T09:47:30.716Z,51.08
2023-07-23T09:49:59.476Z,50.06
2023-07-23T09:52:37.114Z,49.62
2023-07-23T09:55:06.520Z,49.35
2023-07-23T09:57:35.537Z,50.23
2023-07-23T10:00:05.628Z,50.94
2023-07-23T10:02:36.624Z,50.16
2023-07-23T10:05:06.617Z,48.74
2023-07-23T10:07:39.381Z,48.31
2023-07-23T10:10:09.288Z,48.75
2023-07-23T10:12:38.412Z,49.70
2023-07-23T10:15:08.598Z,50.74
2023-07-23T10:17:40.708Z,51.03
2023-07-23T10:20:12.214Z,50.15
2023-07-23T10:22:42.254Z,49.82
2023-07-23T10:25:34.573Z,47.89
2023-07-23T10:28:08.317Z,46.42
2023-07-23T10:30:38.977Z,47.37
2023-07-23T10:33:32.281Z,49.41
2023-07-23T10:36:03.891Z,50.53
2023-07-23T10:38:35.192Z,50.82
2023-07-23T10:41:04.938Z,49.91
2023-07-23T10:43:40.945Z,49.08
2023-07-23T10:46:11.105Z,46.12
2023-07-23T10:48:46.650Z,43.04
2023-07-23T10:51:16.649Z,40.22
2023-07-23T10:53:56.814Z,39.07
2023-07-23T10:56:27.388Z,38.08
2023-07-23T10:58:59.393Z,40.64
2023-07-23T11:01:30.168Z,41.08
2023-07-23T11:04:02.154Z,41.42
2023-07-23T11:06:33.078Z,41.56
2023-07-23T11:09:06.865Z,42.76
2023-07-23T11:11:40.092Z,44.19
2023-07-23T11:14:21.613Z,45.65
2023-07-23T11:16:51.813Z,44.60
2023-07-23T11:19:21.044Z,43.57
2023-07-23T11:21:52.057Z,43.58
2023-07-23T11:24:22.382Z,44.24
2023-07-23T11:26:51.517Z,44.48
2023-07-23T11:29:20.269Z,43.61
2023-07-23T11:31:49.921Z,43.49
2023-07-23T11:34:18.903Z,42.89
2023-07-23T11:36:53.425Z,40.97
2023-07-23T11:39:25.435Z,39.30
2023-07-23T11:41:54.547Z,37.86
2023-07-23T11:44:23.210Z,36.58
2023-07-23T11:46:52.136Z,35.58
2023-07-23T11:49:20.640Z,34.78
2023-07-23T11:51:49.309Z,34.02
2023-07-23T11:54:18.586Z,33.50
2023-07-23T11:56:48.744Z,33.23
2023-07-23T11:59:19.554Z,32.86
2023-07-23T12:01:48.429Z,32.14
2023-07-23T12:04:16.854Z,32.22
2023-07-23T12:06:45.416Z,32.16
2023-07-23T12:09:14.532Z,32.24
2023-07-23T12:11:45.045Z,32.17
2023-07-23T12:14:17.802Z,31.81
2023-07-23T12:16:48.523Z,31.34
2023-07-23T12:19:18.298Z,31.02
2023-07-23T12:21:48.830Z,30.83
2023-07-23T12:24:19.454Z,31.08
2023-07-23T12:26:50.002Z,31.11
2023-07-23T12:29:21.021Z,31.35
2023-07-23T12:31:50.821Z,31.10
2023-07-23T12:34:21.147Z,31.08
2023-07-23T12:36:50.675Z,30.87
2023-07-23T12:39:19.438Z,31.00
2023-07-23T12:41:48.010Z,30.59
2023-07-23T12:44:16.321Z,30.57
2023-07-23T12:46:57.562Z,30.95
2023-07-23T12:49:25.723Z,31.51
2023-07-23T12:51:54.331Z,30.84
2023-07-23T12:54:22.676Z,30.97
2023-07-23T12:56:51.309Z,31.30
2023-07-23T12:59:19.562Z,31.41
2023-07-23T13:01:49.720Z,31.46
2023-07-23T13:04:18.121Z,30.82
2023-07-23T13:06:46.806Z,30.84
2023-07-23T13:09:15.216Z,31.10
2023-07-23T13:11:43.768Z,31.39
2023-07-23T13:14:12.252Z,31.79
2023-07-23T13:16:41.805Z,32.03
2023-07-23T13:19:12.061Z,32.28
2023-07-23T13:21:40.672Z,31.89
2023-07-23T13:24:10.336Z,31.75
2023-07-23T13:26:38.910Z,31.77
2023-07-23T13:29:07.238Z,31.68
2023-07-23T13:31:35.933Z,31.87
2023-07-23T13:34:04.323Z,31.99
2023-07-23T13:36:34.359Z,32.30
2023-07-23T13:39:02.773Z,32.08
2023-07-23T13:41:31.423Z,31.96
2023-07-23T13:44:02.456Z,31.69
2023-07-23T13:46:31.814Z,31.22
2023-07-23T13:49:00.492Z,30.89
2023-07-23T13:51:29.001Z,30.87
2023-07-23T13:53:58.998Z,31.14
2023-07-23T13:56:28.020Z,30.86
2023-07-23T13:58:56.697Z,30.68
2023-07-23T14:01:25.355Z,30.60
2023-07-23T14:04:04.351Z,30.92
2023-07-23T14:06:33.165Z,30.62
2023-07-23T14:09:03.015Z,30.84
2023-07-23T14:11:33.752Z,30.88
2023-07-23T14:14:02.733Z,30.98
2023-07-23T14:16:31.338Z,31.06
2023-07-23T14:19:00.206Z,30.82
2023-07-23T14:21:29.010Z,30.67
2023-07-23T14:23:57.586Z,30.54
2023-07-23T14:26:27.703Z,30.53
2023-07-23T14:28:56.003Z,30.10
2023-07-23T14:31:24.828Z,29.83
2023-07-23T14:33:53.346Z,29.76
2023-07-23T14:36:21.974Z,29.66
2023-07-23T14:38:50.298Z,29.67
2023-07-23T14:41:18.986Z,29.52
2023-07-23T14:43:48.705Z,29.84
2023-07-23T14:46:17.332Z,29.84
2023-07-23T14:48:45.638Z,29.75
2023-07-23T14:51:14.151Z,29.79
2023-07-23T14:53:42.778Z,29.80
2023-07-23T14:56:11.375Z,29.84
2023-07-23T14:58:39.778Z,29.72
2023-07-23T15:01:10.161Z,29.93
2023-07-23T15:03:38.853Z,29.49
2023-07-23T15:06:07.817Z,29.46
2023-07-23T15:08:36.151Z,29.23
2023-07-23T15:11:04.730Z,29.09
2023-07-23T15:13:33.957Z,29.09
2023-07-23T15:16:03.200Z,29.18
2023-07-23T15:18:33.558Z,29.49
2023-07-23T15:21:03.060Z,29.23
2023-07-23T15:23:31.912Z,29.33
2023-07-23T15:26:05.160Z,29.29
2023-07-23T15:28:36.095Z,29.01
2023-07-23T15:31:04.815Z,28.85
2023-07-23T15:33:34.587Z,29.15
2023-07-23T15:36:03.111Z,28.99
2023-07-23T15:38:31.484Z,28.96
2023-07-23T15:41:00.138Z,29.02
2023-07-23T15:43:29.136Z,29.13
2023-07-23T15:45:57.874Z,29.02
2023-07-23T15:48:26.318Z,28.93
2023-07-23T15:50:56.297Z,29.11
2023-07-23T15:53:24.777Z,28.97
2023-07-23T15:55:54.050Z,28.97
2023-07-23T15:58:22.380Z,28.82
2023-07-23T16:00:51.117Z,28.53
2023-07-23T16:03:19.562Z,28.50
2023-07-23T16:05:48.399Z,28.62
2023-07-23T16:08:18.072Z,28.87
2023-07-23T16:10:46.965Z,28.45
2023-07-23T16:13:15.200Z,28.50
2023-07-23T16:15:43.990Z,28.49
2023-07-23T16:18:12.558Z,28.43
2023-07-23T16:20:43.433Z,28.70
2023-07-23T16:23:11.659Z,28.64
2023-07-23T16:25:43.069Z,29.11
2023-07-23T16:28:15.410Z,28.87
2023-07-23T16:30:44.017Z,28.79
2023-07-23T16:33:13.238Z,28.91
2023-07-23T16:35:42.299Z,29.20
2023-07-23T16:38:13.342Z,29.42
2023-07-23T16:40:46.115Z,29.53
2023-07-23T16:43:16.918Z,29.34
2023-07-23T16:45:47.003Z,29.17
2023-07-23T16:48:15.726Z,29.16
2023-07-23T16:50:44.219Z,28.86
2023-07-23T16:53:13.120Z,28.95
2023-07-23T16:55:43.102Z,28.53
2023-07-23T16:58:11.311Z,28.57
2023-07-23T17:00:39.923Z,28.48
2023-07-23T17:03:08.627Z,28.32
2023-07-23T17:05:37.388Z,28.37
2023-07-23T17:08:05.717Z,28.31
2023-07-23T17:10:34.247Z,28.18
2023-07-23T17:13:04.135Z,28.48
2023-07-23T17:15:32.732Z,28.14
2023-07-23T17:18:01.022Z,27.83
2023-07-23T17:20:29.782Z,27.86
2023-07-23T17:22:58.049Z,27.62
2023-07-23T17:25:26.636Z,27.63
2023-07-23T17:27:54.936Z,27.58
2023-07-23T17:30:24.844Z,27.82
2023-07-23T17:32:53.217Z,27.67
2023-07-23T17:35:21.842Z,27.60
2023-07-23T17:37:50.754Z,27.43
2023-07-23T17:40:19.557Z,27.60
2023-07-23T17:42:48.511Z,27.58
2023-07-23T17:45:17.482Z,27.53
2023-07-23T17:47:47.239Z,27.68
2023-07-23T17:50:17.270Z,27.50
2023-07-23T17:52:46.285Z,27.27
2023-07-23T17:55:14.908Z,27.23
2023-07-23T17:57:45.501Z,27.29
2023-07-23T18:00:14.992Z,27.21
2023-07-23T18:02:43.445Z,27.07
2023-07-23T18:05:13.632Z,27.24
2023-07-23T18:07:41.896Z,27.03
2023-07-23T18:10:11.996Z,27.19
2023-07-23T18:12:40.265Z,26.95
2023-07-23T18:15:10.225Z,27.25
2023-07-23T18:17:38.513Z,27.05
2023-07-23T18:20:08.275Z,27.06
2023-07-23T18:22:38.039Z,27.13
2023-07-23T18:25:07.675Z,26.89
2023-07-23T18:27:36.659Z,26.82
2023-07-23T18:30:05.578Z,26.71
2023-07-23T18:32:34.002Z,26.69
2023-07-23T18:35:02.525Z,26.67
2023-07-23T18:37:30.729Z,26.40
2023-07-23T18:40:00.775Z,26.65
2023-07-23T18:42:29.056Z,26.28
2023-07-23T18:44:58.769Z,26.40
2023-07-23T18:47:27.278Z,26.24
2023-07-23T18:49:55.925Z,26.19
2023-07-23T18:52:26.339Z,25.96
2023-07-23T18:54:56.752Z,26.01
2023-07-23T18:57:27.257Z,26.30
2023-07-23T18:59:56.201Z,26.03
2023-07-23T19:02:24.718Z,25.80
2023-07-23T19:04:53.779Z,25.83
2023-07-23T19:07:22.313Z,25.85
2023-07-23T19:09:51.094Z,25.85
2023-07-23T19:12:19.345Z,25.86
2023-07-23T19:14:49.586Z,25.93
2023-07-23T19:17:17.986Z,25.65
2023-07-23T19:19:47.000Z,25.67
2023-07-23T19:22:15.608Z,25.55
2023-07-23T19:24:44.426Z,25.39
2023-07-23T19:27:12.750Z,25.29
2023-07-23T19:29:41.344Z,25.24
2023-07-23T19:32:13.610Z,25.44
2023-07-23T19:34:42.285Z,25.14
2023-07-23T19:37:11.453Z,25.15
2023-07-23T19:39:40.961Z,25.15
2023-07-23T19:42:09.270Z,25.07
2023-07-23T19:44:37.795Z,25.02
2023-07-23T19:47:06.786Z,25.21
2023-07-23T19:49:37.340Z,25.24
2023-07-23T19:52:06.145Z,25.09
2023-07-23T19:54:34.896Z,24.97
2023-07-23T19:57:03.234Z,25.00
2023-07-23T19:59:32.296Z,24.99
2023-07-23T20:02:00.561Z,24.91
2023-07-23T20:04:29.608Z,25.07
2023-07-23T20:06:59.461Z,25.14
2023-07-23T20:09:28.009Z,24.79
2023-07-23T20:11:57.482Z,24.91
2023-07-23T20:14:26.209Z,24.86
2023-07-23T20:16:54.742Z,24.86
2023-07-23T20:19:23.353Z,24.79
2023-07-23T20:21:51.736Z,24.77
2023-07-23T20:24:21.972Z,24.98
2023-07-23T20:26:50.436Z,24.59
2023-07-23T20:29:19.815Z,24.66
2023-07-23T20:31:48.687Z,24.75
2023-07-23T20:34:17.746Z,24.57
2023-07-23T20:36:47.256Z,24.51
2023-07-23T20:39:16.441Z,24.56
2023-07-23T20:41:46.918Z,24.70
2023-07-23T20:44:15.639Z,24.48
2023-07-23T20:46:44.415Z,24.32
2023-07-23T20:49:13.119Z,24.32
2023-07-23T20:51:41.470Z,24.25
2023-07-23T20:54:10.054Z,24.29
2023-07-23T20:56:38.507Z,24.31
2023-07-23T20:59:09.377Z,24.42
2023-07-23T21:01:37.639Z,24.14
2023-07-23T21:04:06.377Z,24.19
2023-07-23T21:06:34.948Z,24.31
2023-07-23T21:09:04.356Z,24.25
2023-07-23T21:11:32.871Z,24.20
2023-07-23T21:14:01.658Z,24.20
2023-07-23T21:16:32.899Z,24.32
2023-07-23T21:19:02.575Z,24.16
2023-07-23T21:21:30.999Z,24.01
2023-07-23T21:23:59.556Z,24.09
2023-07-23T21:26:28.218Z,24.12
2023-07-23T21:28:57.160Z,24.03
2023-07-23T21:31:25.569Z,24.05
2023-07-23T21:33:55.531Z,24.31
2023-07-23T21:36:24.655Z,24.02
2023-07-23T21:38:53.362Z,24.05
2023-07-23T21:41:21.758Z,23.96
2023-07-23T21:43:50.351Z,24.02
2023-07-23T21:46:18.806Z,23.93
2023-07-23T21:48:47.719Z,24.07
2023-07-23T21:51:17.826Z,24.29
2023-07-23T21:53:46.622Z,24.12
2023-07-23T21:56:15.085Z,24.02
2023-07-23T21:58:43.731Z,23.94
2023-07-23T22:01:11.953Z,23.97
2023-07-23T22:03:40.574Z,24.08
2023-07-23T22:06:09.791Z,24.03
2023-07-23T22:08:40.215Z,24.37
2023-07-23T22:11:08.812Z,24.03
2023-07-23T22:13:37.242Z,23.89
2023-07-23T22:16:04.540Z,23.91
2023-07-23T22:18:33.134Z,23.78
2023-07-23T22:21:01.504Z,23.79
2023-07-23T22:23:30.190Z,23.77
2023-07-23T22:25:59.949Z,24.10
2023-07-23T22:28:28.480Z,23.69
2023-07-23T22:30:56.830Z,23.54
2023-07-23T22:33:25.486Z,23.52
2023-07-23T22:35:53.926Z,23.64
2023-07-23T22:38:22.416Z,23.44
2023-07-23T22:40:50.704Z,23.46
2023-07-23T22:43:20.716Z,23.68
2023-07-23T22:45:49.142Z,23.49
2023-07-23T22:48:17.897Z,23.56
2023-07-23T22:50:46.418Z,23.73
2023-07-23T22:53:14.853Z,23.59
2023-07-23T22:55:43.357Z,23.60
2023-07-23T22:58:11.961Z,23.66
2023-07-23T23:00:41.787Z,23.94
2023-07-23T23:03:10.373Z,23.82
2023-07-23T23:05:38.783Z,23.93
2023-07-23T23:08:07.379Z,23.97
2023-07-23T23:10:35.686Z,23.97
2023-07-23T23:13:04.185Z,23.85
2023-07-23T23:15:32.581Z,23.94
2023-07-23T23:18:02.588Z,24.29
2023-07-23T23:20:30.948Z,24.11
2023-07-23T23:22:59.502Z,23.89
2023-07-23T23:25:27.845Z,23.95
2023-07-23T23:27:56.379Z,23.89
2023-07-23T23:30:24.636Z,23.88
2023-07-23T23:32:53.629Z,23.86
2023-07-23T23:35:23.373Z,24.10
2023-07-23T23:37:53.068Z,24.09
2023-07-23T23:40:21.404Z,23.91
2023-07-23T23:42:50.352Z,23.77
2023-07-23T23:45:18.752Z,23.82
2023-07-23T23:47:47.700Z,23.80
2023-07-23T23:50:15.961Z,23.69
2023-07-23T23:52:45.911Z,24.03
2023-07-23T23:55:14.139Z,23.75
2023-07-23T23:57:42.816Z,23.71
